METAR Analyzer

一覧表示

Hello, Guest. (Login)

YSSY/SYD  -  シドニー・キングスフォード・スミス

観測日時
2021-05-15 17:30 (UTC) (24分前)
気温
9
露点
1
湿数
8
相対湿度
57.2%
QNH
1019hPa
推定現地気圧
1018.3hPa
推定海面気圧
1019.0hPa
体感温度
-2.9
(無風時)
11.9
HI
7.4
気温前日比
-3
体感温度前日比
-6.5
HI前日比
-3.4
水平視程
>10000m
鉛直視程
データなし
雲底高度
No dense clouds
V/I
VMC (VFR)
RVR
No RVR data
卓越風
15kt from 260°
ガスト
No gust
降水
報告なし
その他の天気
報告なし
報告なし

YSSY 151730Z 26015KT CAVOK 09/01 Q1019

NZAA/AKL  -  Auckland

観測日時
2021-05-15 17:30 (UTC) (24分前)
気温
11
露点
11
湿数
0
相対湿度
100%
QNH
1014hPa
推定現地気圧
1013.2hPa
推定海面気圧
1014.1hPa
体感温度
4.9
(無風時)
13.5
HI
10.8
気温前日比
-7
体感温度前日比
-3.9
HI前日比
-7.4
水平視程
>10000m
鉛直視程
データなし
雲底高度
4400ft AGL
V/I
VMC (VFR)
RVR
No RVR data
卓越風
3kt from 30°
ガスト
No gust
降水
報告なし
その他の天気
報告なし
隙間のある雲 @ 4400ft AGL

NZAA 151730Z AUTO 03003KT 9999 BKN044/// 11/11 Q1014 NOSIG

NZWN/WLG  -  Wellington

観測日時
2021-05-15 17:30 (UTC) (24分前)
気温
13
露点
9
湿数
4
相対湿度
76.6%
QNH
1010hPa
推定現地気圧
1008.4hPa
推定海面気圧
1010.0hPa
体感温度
3.4
(無風時)
15.1
HI
12.4
気温前日比
-1
体感温度前日比
+2
HI前日比
-1.5
水平視程
>10000m
鉛直視程
データなし
雲底高度
No dense clouds
V/I
VMC (VFR)
RVR
No RVR data
卓越風
9kt from 20°
ガスト
No gust
降水
報告なし
その他の天気
報告なし
散在する雲 @ 3000ft AGL

NZWN 151730Z AUTO 02009KT 9999 SCT030/// 13/09 Q1010 NOSIG

NZCH/CHC  -  Christchurch

観測日時
2021-05-15 17:30 (UTC) (24分前)
気温
1
露点
1
湿数
0
相対湿度
100%
QNH
1005hPa
推定現地気圧
1000.6hPa
推定海面気圧
1005.2hPa
体感温度
-7.4
(無風時)
4.5
HI
-0.2
気温前日比
-10
体感温度前日比
-12.6
HI前日比
-10.6
水平視程
>10000m
鉛直視程
データなし
雲底高度
No dense clouds
V/I
VMC (VFR)
RVR
No RVR data
卓越風
3kt from 10°
ガスト
No gust
降水
報告なし
その他の天気
報告なし
目立った雲なし

NZCH 151730Z AUTO 01003KT 9999 NCD 01/01 Q1005 NOSIG

NZQN/ZQN  -  Queenstown